sensor_id;sensor_type;location;lat;lon;timestamp;pressure;altitude;pressure_sealevel;temperature;humidity
20017;BME280;10169;42.664;23.610;2024-02-15T00:00:48;95684.66;;;3.05;100.00
20017;BME280;10169;42.664;23.610;2024-02-15T00:02:48;95684.66;;;3.05;100.00
20017;BME280;10169;42.664;23.610;2024-02-15T00:04:48;95680.38;;;3.04;100.00
20017;BME280;10169;42.664;23.610;2024-02-15T00:06:49;95690.88;;;3.04;100.00
20017;BME280;10169;42.664;23.610;2024-02-15T00:08:49;95684.88;;;3.10;100.00
20017;BME280;10169;42.664;23.610;2024-02-15T00:10:52;95688.34;;;3.10;100.00
20017;BME280;10169;42.664;23.610;2024-02-15T00:12:53;95688.13;;;3.12;100.00
20017;BME280;10169;42.664;23.610;2024-02-15T00:14:53;95686.16;;;3.14;100.00
20017;BME280;10169;42.664;23.610;2024-02-15T00:16:54;95681.47;;;3.09;100.00
20017;BME280;10169;42.664;23.610;2024-02-15T00:18:55;95677.63;;;3.12;100.00
20017;BME280;10169;42.664;23.610;2024-02-15T00:20:55;95682.25;;;3.10;100.00
20017;BME280;10169;42.664;23.610;2024-02-15T00:22:55;95687.78;;;3.15;100.00
20017;BME280;10169;42.664;23.610;2024-02-15T00:24:56;95685.72;;;3.10;100.00
20017;BME280;10169;42.664;23.610;2024-02-15T00:26:56;95682.47;;;3.08;100.00
20017;BME280;10169;42.664;23.610;2024-02-15T00:28:56;95687.50;;;3.10;100.00
20017;BME280;10169;42.664;23.610;2024-02-15T00:30:58;95683.28;;;3.09;100.00
20017;BME280;10169;42.664;23.610;2024-02-15T00:32:58;95684.88;;;3.10;100.00
20017;BME280;10169;42.664;23.610;2024-02-15T00:34:59;95680.03;;;3.07;100.00
20017;BME280;10169;42.664;23.610;2024-02-15T00:36:59;95692.59;;;2.97;100.00
20017;BME280;10169;42.664;23.610;2024-02-15T00:39:00;95683.56;;;2.99;100.00
20017;BME280;10169;42.664;23.610;2024-02-15T00:41:00;95687.81;;;3.00;100.00
20017;BME280;10169;42.664;23.610;2024-02-15T00:43:00;95688.72;;;2.92;100.00
20017;BME280;10169;42.664;23.610;2024-02-15T00:45:00;95688.28;;;2.89;100.00
20017;BME280;10169;42.664;23.610;2024-02-15T00:47:02;95693.69;;;2.87;100.00
20017;BME280;10169;42.664;23.610;2024-02-15T00:49:02;95695.25;;;2.82;100.00
20017;BME280;10169;42.664;23.610;2024-02-15T00:51:04;95693.63;;;2.81;100.00
20017;BME280;10169;42.664;23.610;2024-02-15T00:53:04;95699.69;;;2.81;100.00
20017;BME280;10169;42.664;23.610;2024-02-15T00:55:05;95684.22;;;2.72;100.00
20017;BME280;10169;42.664;23.610;2024-02-15T00:57:05;95694.78;;;2.78;100.00
20017;BME280;10169;42.664;23.610;2024-02-15T00:59:06;95690.56;;;2.77;100.00
20017;BME280;10169;42.664;23.610;2024-02-15T01:01:06;95686.22;;;2.70;100.00
20017;BME280;10169;42.664;23.610;2024-02-15T01:03:06;95684.22;;;2.72;100.00
20017;BME280;10169;42.664;23.610;2024-02-15T01:05:06;95686.84;;;2.72;100.00
20017;BME280;10169;42.664;23.610;2024-02-15T01:07:07;95690.00;;;2.67;100.00
20017;BME280;10169;42.664;23.610;2024-02-15T01:09:08;95690.81;;;2.68;100.00
20017;BME280;10169;42.664;23.610;2024-02-15T01:11:09;95688.75;;;2.63;100.00
20017;BME280;10169;42.664;23.610;2024-02-15T01:13:10;95684.66;;;2.61;100.00
20017;BME280;10169;42.664;23.610;2024-02-15T01:15:10;95689.72;;;2.62;100.00
20017;BME280;10169;42.664;23.610;2024-02-15T01:17:10;95700.22;;;2.62;100.00
20017;BME280;10169;42.664;23.610;2024-02-15T01:19:10;95687.75;;;2.64;100.00
20017;BME280;10169;42.664;23.610;2024-02-15T01:21:11;95693.00;;;2.64;100.00
20017;BME280;10169;42.664;23.610;2024-02-15T01:23:11;95690.38;;;2.64;100.00
20017;BME280;10169;42.664;23.610;2024-02-15T01:25:11;95691.66;;;2.68;100.00
20017;BME280;10169;42.664;23.610;2024-02-15T01:27:12;95693.25;;;2.69;100.00
20017;BME280;10169;42.664;23.610;2024-02-15T01:29:12;95696.63;;;2.63;100.00
20017;BME280;10169;42.664;23.610;2024-02-15T01:31:13;95689.66;;;2.70;100.00
20017;BME280;10169;42.664;23.610;2024-02-15T01:33:16;95688.47;;;2.73;100.00
20017;BME280;10169;42.664;23.610;2024-02-15T01:35:18;95681.50;;;2.65;100.00
20017;BME280;10169;42.664;23.610;2024-02-15T01:37:18;95685.78;;;2.66;100.00
20017;BME280;10169;42.664;23.610;2024-02-15T01:39:19;95685.28;;;2.63;100.00
20017;BME280;10169;42.664;23.610;2024-02-15T01:41:19;95682.41;;;2.72;100.00
20017;BME280;10169;42.664;23.610;2024-02-15T01:43:19;95685.94;;;2.65;100.00
20017;BME280;10169;42.664;23.610;2024-02-15T01:45:20;95687.09;;;2.62;100.00
20017;BME280;10169;42.664;23.610;2024-02-15T01:47:21;95688.31;;;2.60;100.00
20017;BME280;10169;42.664;23.610;2024-02-15T01:49:23;95683.69;;;2.62;100.00
20017;BME280;10169;42.664;23.610;2024-02-15T01:51:25;95684.66;;;2.61;100.00
20017;BME280;10169;42.664;23.610;2024-02-15T01:53:26;95682.66;;;2.63;100.00
20017;BME280;10169;42.664;23.610;2024-02-15T01:55:28;95685.13;;;2.64;100.00
20017;BME280;10169;42.664;23.610;2024-02-15T01:57:29;95681.06;;;2.62;100.00
20017;BME280;10169;42.664;23.610;2024-02-15T01:59:30;95682.59;;;2.56;100.00
20017;BME280;10169;42.664;23.610;2024-02-15T02:01:30;95675.81;;;2.62;100.00
20017;BME280;10169;42.664;23.610;2024-02-15T02:03:32;95675.00;;;2.61;100.00
20017;BME280;10169;42.664;23.610;2024-02-15T02:05:32;95676.78;;;2.61;100.00
20017;BME280;10169;42.664;23.610;2024-02-15T02:07:33;95681.59;;;2.57;100.00
20017;BME280;10169;42.664;23.610;2024-02-15T02:09:33;95675.09;;;2.53;100.00
20017;BME280;10169;42.664;23.610;2024-02-15T02:11:33;95679.69;;;2.51;100.00
20017;BME280;10169;42.664;23.610;2024-02-15T02:13:34;95677.53;;;2.55;100.00
20017;BME280;10169;42.664;23.610;2024-02-15T02:15:35;95689.81;;;2.54;100.00
20017;BME280;10169;42.664;23.610;2024-02-15T02:17:37;95683.13;;;2.52;100.00
20017;BME280;10169;42.664;23.610;2024-02-15T02:19:37;95690.19;;;2.51;100.00
20017;BME280;10169;42.664;23.610;2024-02-15T02:21:38;95694.63;;;2.51;100.00
20017;BME280;10169;42.664;23.610;2024-02-15T02:23:39;95692.53;;;2.46;100.00
20017;BME280;10169;42.664;23.610;2024-02-15T02:25:40;95691.72;;;2.46;100.00
20017;BME280;10169;42.664;23.610;2024-02-15T02:27:42;95696.16;;;2.45;100.00
20017;BME280;10169;42.664;23.610;2024-02-15T02:29:43;95697.31;;;2.43;100.00
20017;BME280;10169;42.664;23.610;2024-02-15T02:31:45;95702.56;;;2.43;100.00
20017;BME280;10169;42.664;23.610;2024-02-15T02:33:47;95703.38;;;2.43;100.00
20017;BME280;10169;42.664;23.610;2024-02-15T02:35:48;95708.81;;;2.42;100.00
20017;BME280;10169;42.664;23.610;2024-02-15T02:37:48;95706.75;;;2.37;100.00
20017;BME280;10169;42.664;23.610;2024-02-15T02:39:49;95715.41;;;2.38;100.00
20017;BME280;10169;42.664;23.610;2024-02-15T02:41:49;95717.47;;;2.42;100.00
20017;BME280;10169;42.664;23.610;2024-02-15T02:43:50;95718.22;;;2.36;100.00
20017;BME280;10169;42.664;23.610;2024-02-15T02:45:50;95717.03;;;2.39;100.00
20017;BME280;10169;42.664;23.610;2024-02-15T02:47:54;95709.53;;;2.36;100.00
20017;BME280;10169;42.664;23.610;2024-02-15T02:49:54;95717.75;;;2.33;100.00
20017;BME280;10169;42.664;23.610;2024-02-15T02:51:54;95711.50;;;2.34;100.00
20017;BME280;10169;42.664;23.610;2024-02-15T02:53:55;95705.63;;;2.32;100.00
20017;BME280;10169;42.664;23.610;2024-02-15T02:55:58;95707.72;;;2.36;100.00
20017;BME280;10169;42.664;23.610;2024-02-15T02:57:58;95712.53;;;2.33;100.00
20017;BME280;10169;42.664;23.610;2024-02-15T02:59:58;95709.91;;;2.33;100.00
20017;BME280;10169;42.664;23.610;2024-02-15T03:01:58;95710.34;;;2.36;100.00
20017;BME280;10169;42.664;23.610;2024-02-15T03:03:59;95709.72;;;2.34;100.00
20017;BME280;10169;42.664;23.610;2024-02-15T03:05:59;95712.53;;;2.33;100.00
20017;BME280;10169;42.664;23.610;2024-02-15T03:07:59;95712.53;;;2.33;100.00
20017;BME280;10169;42.664;23.610;2024-02-15T03:10:00;95714.66;;;2.29;100.00
20017;BME280;10169;42.664;23.610;2024-02-15T03:12:01;95716.50;;;2.29;100.00
20017;BME280;10169;42.664;23.610;2024-02-15T03:14:01;95721.25;;;2.25;100.00
20017;BME280;10169;42.664;23.610;2024-02-15T03:16:04;95721.38;;;2.32;100.00
20017;BME280;10169;42.664;23.610;2024-02-15T03:18:05;95722.38;;;2.31;100.00
20017;BME280;10169;42.664;23.610;2024-02-15T03:20:10;95721.56;;;2.30;100.00
20017;BME280;10169;42.664;23.610;2024-02-15T03:22:24;95725.53;;;2.26;100.00
20017;BME280;10169;42.664;23.610;2024-02-15T03:24:25;95722.53;;;2.29;100.00
20017;BME280;10169;42.664;23.610;2024-02-15T03:26:32;95724.53;;;2.27;100.00
20017;BME280;10169;42.664;23.610;2024-02-15T03:28:36;95725.69;;;2.25;100.00
20017;BME280;10169;42.664;23.610;2024-02-15T03:30:37;95731.56;;;2.27;100.00
20017;BME280;10169;42.664;23.610;2024-02-15T03:32:38;95720.28;;;2.26;100.00
20017;BME280;10169;42.664;23.610;2024-02-15T03:34:38;95729.94;;;2.26;100.00
20017;BME280;10169;42.664;23.610;2024-02-15T03:36:39;95732.56;;;2.26;100.00
20017;BME280;10169;42.664;23.610;2024-02-15T03:38:39;95725.53;;;2.26;100.00
20017;BME280;10169;42.664;23.610;2024-02-15T03:40:41;95732.09;;;2.22;100.00
20017;BME280;10169;42.664;23.610;2024-02-15T03:42:41;95733.41;;;2.26;100.00
20017;BME280;10169;42.664;23.610;2024-02-15T03:44:42;95740.09;;;2.29;100.00
20017;BME280;10169;42.664;23.610;2024-02-15T03:46:42;95735.84;;;2.28;100.00
20017;BME280;10169;42.664;23.610;2024-02-15T03:48:43;95740.63;;;2.24;100.00
20017;BME280;10169;42.664;23.610;2024-02-15T03:50:46;95742.13;;;2.18;100.00
20017;BME280;10169;42.664;23.610;2024-02-15T03:52:48;95740.16;;;2.20;100.00
20017;BME280;10169;42.664;23.610;2024-02-15T03:54:48;95740.97;;;2.21;100.00
20017;BME280;10169;42.664;23.610;2024-02-15T03:56:49;95740.16;;;2.20;100.00
20017;BME280;10169;42.664;23.610;2024-02-15T03:58:52;95741.50;;;2.16;100.00
20017;BME280;10169;42.664;23.610;2024-02-15T04:00:53;95741.59;;;2.23;100.00
20017;BME280;10169;42.664;23.610;2024-02-15T04:02:55;95743.50;;;2.14;100.00
20017;BME280;10169;42.664;23.610;2024-02-15T04:04:56;95744.94;;;2.17;100.00
20017;BME280;10169;42.664;23.610;2024-02-15T04:06:57;95742.13;;;2.18;100.00
20017;BME280;10169;42.664;23.610;2024-02-15T04:08:58;95749.81;;;2.20;100.00
20017;BME280;10169;42.664;23.610;2024-02-15T04:10:58;95746.56;;;2.18;100.00
20017;BME280;10169;42.664;23.610;2024-02-15T04:12:59;95746.94;;;2.15;100.00
20017;BME280;10169;42.664;23.610;2024-02-15T04:14:59;95747.56;;;2.17;100.00
20017;BME280;10169;42.664;23.610;2024-02-15T04:17:05;95744.13;;;2.16;100.00
20017;BME280;10169;42.664;23.610;2024-02-15T04:19:05;95748.88;;;2.13;100.00
20017;BME280;10169;42.664;23.610;2024-02-15T04:21:06;95744.47;;;2.13;100.00
20017;BME280;10169;42.664;23.610;2024-02-15T04:23:07;95745.63;;;2.11;100.00
20017;BME280;10169;42.664;23.610;2024-02-15T04:25:07;95743.53;;;2.06;100.00
20017;BME280;10169;42.664;23.610;2024-02-15T04:27:10;95743.72;;;2.05;100.00
20017;BME280;10169;42.664;23.610;2024-02-15T04:29:20;95744.03;;;2.10;100.00
20017;BME280;10169;42.664;23.610;2024-02-15T04:31:21;95748.25;;;2.11;100.00
20017;BME280;10169;42.664;23.610;2024-02-15T04:33:26;95750.63;;;2.06;100.00
20017;BME280;10169;42.664;23.610;2024-02-15T04:35:26;95742.28;;;2.02;100.00
20017;BME280;10169;42.664;23.610;2024-02-15T04:37:27;95749.69;;;1.99;100.00
20017;BME280;10169;42.664;23.610;2024-02-15T04:39:29;95744.78;;;1.96;100.00
20017;BME280;10169;42.664;23.610;2024-02-15T04:41:30;95745.78;;;1.95;100.00
20017;BME280;10169;42.664;23.610;2024-02-15T04:43:30;95747.09;;;1.91;100.00
20017;BME280;10169;42.664;23.610;2024-02-15T04:45:33;95749.72;;;1.91;100.00
20017;BME280;10169;42.664;23.610;2024-02-15T04:47:34;95757.59;;;1.91;100.00
20017;BME280;10169;42.664;23.610;2024-02-15T04:49:34;95756.59;;;1.92;100.00
20017;BME280;10169;42.664;23.610;2024-02-15T04:51:38;95758.88;;;1.95;100.00
20017;BME280;10169;42.664;23.610;2024-02-15T04:53:38;95765.44;;;1.91;100.00
20017;BME280;10169;42.664;23.610;2024-02-15T04:55:39;95758.09;;;1.86;100.00
20017;BME280;10169;42.664;23.610;2024-02-15T04:57:39;95763.09;;;1.81;100.00
20017;BME280;10169;42.664;23.610;2024-02-15T04:59:40;95758.63;;;1.82;100.00
20017;BME280;10169;42.664;23.610;2024-02-15T05:01:47;95764.88;;;1.81;100.00
20017;BME280;10169;42.664;23.610;2024-02-15T05:03:47;95768.31;;;1.81;100.00
20017;BME280;10169;42.664;23.610;2024-02-15T05:05:47;95767.84;;;1.78;100.00
20017;BME280;10169;42.664;23.610;2024-02-15T05:07:48;95767.19;;;1.76;100.00
20017;BME280;10169;42.664;23.610;2024-02-15T05:09:49;95777.16;;;1.80;100.00
20017;BME280;10169;42.664;23.610;2024-02-15T05:11:50;95777.16;;;1.80;100.00
20017;BME280;10169;42.664;23.610;2024-02-15T05:13:50;95774.88;;;1.77;100.00
20017;BME280;10169;42.664;23.610;2024-02-15T05:15:50;95776.41;;;1.72;100.00
20017;BME280;10169;42.664;23.610;2024-02-15T05:17:51;95779.03;;;1.72;100.00
20017;BME280;10169;42.664;23.610;2024-02-15T05:19:51;95784.72;;;1.75;100.00
20017;BME280;10169;42.664;23.610;2024-02-15T05:21:51;95788.66;;;1.79;100.00
20017;BME280;10169;42.664;23.610;2024-02-15T05:23:52;95792.53;;;1.83;100.00
20017;BME280;10169;42.664;23.610;2024-02-15T05:25:52;95793.38;;;1.84;100.00
20017;BME280;10169;42.664;23.610;2024-02-15T05:27:54;95794.16;;;1.84;100.00
20017;BME280;10169;42.664;23.610;2024-02-15T05:29:54;95800.84;;;1.87;100.00
20017;BME280;10169;42.664;23.610;2024-02-15T05:31:54;95802.66;;;1.86;100.00
20017;BME280;10169;42.664;23.610;2024-02-15T05:33:56;95797.59;;;1.85;100.00
20017;BME280;10169;42.664;23.610;2024-02-15T05:35:58;95806.16;;;1.79;100.00
20017;BME280;10169;42.664;23.610;2024-02-15T05:37:58;95798.44;;;1.85;100.00
20017;BME280;10169;42.664;23.610;2024-02-15T05:39:58;95807.25;;;1.84;100.00
20017;BME280;10169;42.664;23.610;2024-02-15T05:41:58;95813.13;;;1.86;100.00
20017;BME280;10169;42.664;23.610;2024-02-15T05:44:01;95803.84;;;1.84;100.00
20017;BME280;10169;42.664;23.610;2024-02-15T05:46:04;95804.69;;;1.76;100.00
20017;BME280;10169;42.664;23.610;2024-02-15T05:48:06;95809.25;;;1.82;100.00
20017;BME280;10169;42.664;23.610;2024-02-15T05:50:07;95809.72;;;1.86;100.00
20017;BME280;10169;42.664;23.610;2024-02-15T05:52:07;95808.91;;;1.85;100.00
20017;BME280;10169;42.664;23.610;2024-02-15T05:54:08;95814.28;;;1.92;100.00
20017;BME280;10169;42.664;23.610;2024-02-15T05:56:09;95824.88;;;1.98;100.00
20017;BME280;10169;42.664;23.610;2024-02-15T05:58:12;95825.50;;;2.00;100.00
20017;BME280;10169;42.664;23.610;2024-02-15T06:00:14;95825.06;;;1.97;100.00
20017;BME280;10169;42.664;23.610;2024-02-15T06:02:15;95826.97;;;2.03;100.00
20017;BME280;10169;42.664;23.610;2024-02-15T06:04:15;95826.63;;;2.06;100.00
20017;BME280;10169;42.664;23.610;2024-02-15T06:06:16;95829.59;;;2.03;100.00
20017;BME280;10169;42.664;23.610;2024-02-15T06:08:17;95828.66;;;1.96;100.00
20017;BME280;10169;42.664;23.610;2024-02-15T06:10:17;95834.22;;;1.93;100.00
20017;BME280;10169;42.664;23.610;2024-02-15T06:12:18;95842.78;;;1.87;100.00
20017;BME280;10169;42.664;23.610;2024-02-15T06:14:18;95836.56;;;1.88;100.00
20017;BME280;10169;42.664;23.610;2024-02-15T06:16:18;95848.97;;;1.94;100.00
20017;BME280;10169;42.664;23.610;2024-02-15T06:18:22;95847.19;;;1.94;100.00
20017;BME280;10169;42.664;23.610;2024-02-15T06:20:26;95842.88;;;2.01;100.00
20017;BME280;10169;42.664;23.610;2024-02-15T06:22:30;95855.81;;;2.03;100.00
20017;BME280;10169;42.664;23.610;2024-02-15T06:24:30;95854.75;;;2.12;100.00
20017;BME280;10169;42.664;23.610;2024-02-15T06:26:31;95860.19;;;2.10;100.00
20017;BME280;10169;42.664;23.610;2024-02-15T06:28:32;95858.03;;;2.14;100.00
20017;BME280;10169;42.664;23.610;2024-02-15T06:30:51;95857.50;;;2.18;100.00
20017;BME280;10169;42.664;23.610;2024-02-15T06:33:09;95863.69;;;2.26;100.00
20017;BME280;10169;42.664;23.610;2024-02-15T06:35:28;95868.75;;;2.27;100.00
20017;BME280;10169;42.664;23.610;2024-02-15T06:37:47;95866.13;;;2.27;100.00
20017;BME280;10169;42.664;23.610;2024-02-15T06:40:07;95865.38;;;2.41;100.00
20017;BME280;10169;42.664;23.610;2024-02-15T06:42:08;95868.97;;;2.40;100.00
20017;BME280;10169;42.664;23.610;2024-02-15T06:44:08;95873.13;;;2.35;100.00
20017;BME280;10169;42.664;23.610;2024-02-15T06:46:09;95867.06;;;2.34;100.00
20017;BME280;10169;42.664;23.610;2024-02-15T06:48:10;95868.19;;;2.40;100.00
20017;BME280;10169;42.664;23.610;2024-02-15T06:50:14;95871.06;;;2.45;100.00
20017;BME280;10169;42.664;23.610;2024-02-15T06:52:14;95871.59;;;2.40;100.00
20017;BME280;10169;42.664;23.610;2024-02-15T06:54:15;95865.94;;;2.51;100.00
20017;BME280;10169;42.664;23.610;2024-02-15T06:56:18;95857.53;;;2.56;100.00
20017;BME280;10169;42.664;23.610;2024-02-15T06:58:20;95869.38;;;2.52;100.00
20017;BME280;10169;42.664;23.610;2024-02-15T07:00:20;95858.75;;;2.53;100.00
20017;BME280;10169;42.664;23.610;2024-02-15T07:02:21;95863.28;;;2.59;100.00
20017;BME280;10169;42.664;23.610;2024-02-15T07:04:22;95867.66;;;2.44;100.00
20017;BME280;10169;42.664;23.610;2024-02-15T07:06:25;95868.94;;;2.48;100.00
20017;BME280;10169;42.664;23.610;2024-02-15T07:08:27;95865.81;;;2.67;100.00
20017;BME280;10169;42.664;23.610;2024-02-15T07:10:27;95860.03;;;2.72;100.00
20017;BME280;10169;42.664;23.610;2024-02-15T07:12:27;95859.63;;;2.60;100.00
20017;BME280;10169;42.664;23.610;2024-02-15T07:14:28;95868.09;;;2.70;100.00
20017;BME280;10169;42.664;23.610;2024-02-15T07:16:28;95859.63;;;2.60;100.00
20017;BME280;10169;42.664;23.610;2024-02-15T07:18:29;95864.88;;;2.60;100.00
20017;BME280;10169;42.664;23.610;2024-02-15T07:20:29;95862.56;;;2.65;100.00
20017;BME280;10169;42.664;23.610;2024-02-15T07:22:30;95869.28;;;2.82;100.00
20017;BME280;10169;42.664;23.610;2024-02-15T07:24:31;95865.88;;;2.82;100.00
20017;BME280;10169;42.664;23.610;2024-02-15T07:26:32;95870.00;;;2.76;100.00
20017;BME280;10169;42.664;23.610;2024-02-15T07:28:34;95869.59;;;2.65;100.00
20017;BME280;10169;42.664;23.610;2024-02-15T07:30:35;95864.44;;;2.57;100.00
20017;BME280;10169;42.664;23.610;2024-02-15T07:32:36;95869.22;;;2.53;100.00
20017;BME280;10169;42.664;23.610;2024-02-15T07:34:37;95874.94;;;2.57;100.00
20017;BME280;10169;42.664;23.610;2024-02-15T07:36:37;95869.44;;;2.66;100.00
20017;BME280;10169;42.664;23.610;2024-02-15T07:38:39;95870.91;;;2.69;100.00
20017;BME280;10169;42.664;23.610;2024-02-15T07:40:40;95872.63;;;2.76;100.00
20017;BME280;10169;42.664;23.610;2024-02-15T07:42:41;95873.84;;;2.88;100.00
20017;BME280;10169;42.664;23.610;2024-02-15T07:44:41;95864.41;;;2.94;100.00
20017;BME280;10169;42.664;23.610;2024-02-15T07:46:43;95862.88;;;2.85;100.00
20017;BME280;10169;42.664;23.610;2024-02-15T07:48:43;95868.75;;;2.87;100.00
20017;BME280;10169;42.664;23.610;2024-02-15T07:50:47;95869.84;;;2.92;100.00
20017;BME280;10169;42.664;23.610;2024-02-15T07:52:48;95867.53;;;3.12;100.00
20017;BME280;10169;42.664;23.610;2024-02-15T07:54:49;95850.94;;;3.41;100.00
20017;BME280;10169;42.664;23.610;2024-02-15T07:56:49;95861.81;;;3.67;100.00
20017;BME280;10169;42.664;23.610;2024-02-15T07:58:50;95857.16;;;3.84;100.00
20017;BME280;10169;42.664;23.610;2024-02-15T08:00:52;95867.50;;;3.85;100.00
20017;BME280;10169;42.664;23.610;2024-02-15T08:02:53;95863.03;;;4.00;100.00
20017;BME280;10169;42.664;23.610;2024-02-15T08:04:54;95854.28;;;4.14;100.00
20017;BME280;10169;42.664;23.610;2024-02-15T08:06:54;95853.97;;;4.24;100.00
20017;BME280;10169;42.664;23.610;2024-02-15T08:08:55;95857.03;;;4.49;100.00
20017;BME280;10169;42.664;23.610;2024-02-15T08:10:55;95848.31;;;4.69;100.00
20017;BME280;10169;42.664;23.610;2024-02-15T08:12:56;95860.38;;;5.06;100.00
20017;BME280;10169;42.664;23.610;2024-02-15T08:14:58;95860.34;;;5.34;100.00
20017;BME280;10169;42.664;23.610;2024-02-15T08:16:58;95845.94;;;5.30;100.00
20017;BME280;10169;42.664;23.610;2024-02-15T08:18:58;95857.31;;;5.30;100.00
20017;BME280;10169;42.664;23.610;2024-02-15T08:21:00;95848.13;;;5.20;100.00
20017;BME280;10169;42.664;23.610;2024-02-15T08:23:00;95848.81;;;5.35;100.00
20017;BME280;10169;42.664;23.610;2024-02-15T08:25:00;95848.91;;;5.54;100.00
20017;BME280;10169;42.664;23.610;2024-02-15T08:27:01;95846.28;;;5.54;100.00
20017;BME280;10169;42.664;23.610;2024-02-15T08:29:02;95840.63;;;5.57;100.00
20017;BME280;10169;42.664;23.610;2024-02-15T08:31:03;95843.41;;;5.49;100.00
20017;BME280;10169;42.664;23.610;2024-02-15T08:33:04;95842.41;;;5.50;100.00
20017;BME280;10169;42.664;23.610;2024-02-15T08:35:05;95839.88;;;5.70;100.00
20017;BME280;10169;42.664;23.610;2024-02-15T08:37:06;95836.00;;;6.07;100.00
20017;BME280;10169;42.664;23.610;2024-02-15T08:39:07;95837.19;;;6.04;100.00
20017;BME280;10169;42.664;23.610;2024-02-15T08:41:12;95834.97;;;6.08;100.00
20017;BME280;10169;42.664;23.610;2024-02-15T08:43:12;95837.44;;;6.16;100.00
20017;BME280;10169;42.664;23.610;2024-02-15T08:45:12;95838.66;;;6.20;100.00
20017;BME280;10169;42.664;23.610;2024-02-15T08:47:12;95842.84;;;6.88;99.75
20017;BME280;10169;42.664;23.610;2024-02-15T08:49:13;95849.53;;;7.16;94.63
20017;BME280;10169;42.664;23.610;2024-02-15T08:51:13;95847.56;;;7.69;92.90
20017;BME280;10169;42.664;23.610;2024-02-15T08:53:14;95844.88;;;7.89;87.33
20017;BME280;10169;42.664;23.610;2024-02-15T08:55:15;95853.22;;;7.86;86.21
20017;BME280;10169;42.664;23.610;2024-02-15T08:57:17;95847.22;;;8.10;84.96
20017;BME280;10169;42.664;23.610;2024-02-15T08:59:19;95852.84;;;7.76;82.11
20017;BME280;10169;42.664;23.610;2024-02-15T09:01:19;95843.38;;;8.06;83.31
20017;BME280;10169;42.664;23.610;2024-02-15T09:03:19;95838.72;;;8.01;78.94
20017;BME280;10169;42.664;23.610;2024-02-15T09:05:20;95838.44;;;8.16;78.25
20017;BME280;10169;42.664;23.610;2024-02-15T09:07:22;95826.56;;;8.25;76.15
20017;BME280;10169;42.664;23.610;2024-02-15T09:09:22;95844.41;;;8.81;75.65
20017;BME280;10169;42.664;23.610;2024-02-15T09:11:27;95844.25;;;9.68;73.82
20017;BME280;10169;42.664;23.610;2024-02-15T09:13:28;95843.25;;;9.62;67.91
20017;BME280;10169;42.664;23.610;2024-02-15T09:15:29;95847.69;;;10.04;65.70
20017;BME280;10169;42.664;23.610;2024-02-15T09:17:30;95844.44;;;10.02;62.68
20017;BME280;10169;42.664;23.610;2024-02-15T09:19:32;95832.59;;;10.53;63.28
20017;BME280;10169;42.664;23.610;2024-02-15T09:21:33;95834.44;;;11.05;60.71
20017;BME280;10169;42.664;23.610;2024-02-15T09:23:33;95835.16;;;11.01;58.95
20017;BME280;10169;42.664;23.610;2024-02-15T09:25:33;95828.88;;;10.95;59.74
20017;BME280;10169;42.664;23.610;2024-02-15T09:27:34;95819.59;;;10.33;59.31
20017;BME280;10169;42.664;23.610;2024-02-15T09:29:34;95820.94;;;9.70;61.70
20017;BME280;10169;42.664;23.610;2024-02-15T09:31:34;95821.44;;;10.33;62.67
20017;BME280;10169;42.664;23.610;2024-02-15T09:33:36;95823.25;;;10.62;60.87
20017;BME280;10169;42.664;23.610;2024-02-15T09:35:36;95823.72;;;11.12;59.18
20017;BME280;10169;42.664;23.610;2024-02-15T09:37:43;95826.13;;;11.13;57.26
20017;BME280;10169;42.664;23.610;2024-02-15T09:39:46;95818.25;;;10.54;58.52
20017;BME280;10169;42.664;23.610;2024-02-15T09:41:46;95823.09;;;11.10;57.94
20017;BME280;10169;42.664;23.610;2024-02-15T09:43:50;95818.28;;;11.53;55.95
20017;BME280;10169;42.664;23.610;2024-02-15T09:45:52;95818.50;;;11.75;55.16
20017;BME280;10169;42.664;23.610;2024-02-15T09:47:55;95818.16;;;11.83;56.75
20017;BME280;10169;42.664;23.610;2024-02-15T09:49:59;95814.19;;;11.97;55.08
20017;BME280;10169;42.664;23.610;2024-02-15T09:51:59;95810.53;;;11.63;56.09
20017;BME280;10169;42.664;23.610;2024-02-15T09:54:00;95813.75;;;11.53;56.06
20017;BME280;10169;42.664;23.610;2024-02-15T09:56:01;95809.38;;;11.47;55.41
20017;BME280;10169;42.664;23.610;2024-02-15T09:58:04;95808.13;;;10.74;55.74
20017;BME280;10169;42.664;23.610;2024-02-15T10:00:05;95803.66;;;10.86;56.11
20017;BME280;10169;42.664;23.610;2024-02-15T10:02:13;95808.09;;;11.38;56.33
20017;BME280;10169;42.664;23.610;2024-02-15T10:04:14;95796.75;;;11.08;55.77
20017;BME280;10169;42.664;23.610;2024-02-15T10:06:16;95793.66;;;11.23;55.69
20017;BME280;10169;42.664;23.610;2024-02-15T10:08:18;95784.66;;;11.98;54.63
20017;BME280;10169;42.664;23.610;2024-02-15T10:12:21;95772.25;;;9.94;58.04
20017;BME280;10169;42.664;23.610;2024-02-15T10:14:26;95781.59;;;11.09;59.01
20017;BME280;10169;42.664;23.610;2024-02-15T10:16:26;95755.47;;;12.03;56.42
20017;BME280;10169;42.664;23.610;2024-02-15T10:18:26;95771.28;;;12.21;55.59
20017;BME280;10169;42.664;23.610;2024-02-15T10:20:27;95774.88;;;11.76;55.51
20017;BME280;10169;42.664;23.610;2024-02-15T10:22:27;95764.78;;;12.17;54.82
20017;BME280;10169;42.664;23.610;2024-02-15T10:24:27;95763.75;;;11.55;55.07
20017;BME280;10169;42.664;23.610;2024-02-15T10:26:28;95765.22;;;11.86;55.56
20017;BME280;10169;42.664;23.610;2024-02-15T10:28:29;95759.97;;;12.03;54.98
20017;BME280;10169;42.664;23.610;2024-02-15T10:30:29;95748.38;;;11.69;56.33
20017;BME280;10169;42.664;23.610;2024-02-15T10:32:35;95756.63;;;11.21;58.05
20017;BME280;10169;42.664;23.610;2024-02-15T10:34:43;95750.59;;;11.49;59.15
20017;BME280;10169;42.664;23.610;2024-02-15T10:36:44;95749.00;;;11.13;58.18